createdAt,value
2022-09-04T00:03:34.247Z,55.68
2022-09-04T00:08:45.426Z,55.67
2022-09-04T00:13:54.370Z,55.86
2022-09-04T00:19:02.577Z,56.15
2022-09-04T00:24:08.253Z,56.30
2022-09-04T00:29:16.246Z,56.22
2022-09-04T00:34:32.227Z,56.60
2022-09-04T00:39:40.063Z,56.87
2022-09-04T00:45:00.138Z,57.05
2022-09-04T00:50:28.287Z,56.83
2022-09-04T00:55:45.517Z,57.08
2022-09-04T01:00:50.730Z,57.13
2022-09-04T01:06:05.086Z,57.30
2022-09-04T01:11:15.394Z,57.55
2022-09-04T01:16:24.892Z,57.50
2022-09-04T01:21:49.009Z,57.50
2022-09-04T01:26:57.823Z,57.76
2022-09-04T01:32:07.335Z,58.03
2022-09-04T01:37:21.551Z,58.13
2022-09-04T01:42:34.021Z,58.26
2022-09-04T01:47:41.386Z,58.37
2022-09-04T01:52:50.424Z,58.39
2022-09-04T01:58:08.102Z,58.62
2022-09-04T02:03:18.723Z,59.04
2022-09-04T02:08:36.350Z,59.06
2022-09-04T02:13:49.789Z,59.44
2022-09-04T02:19:00.589Z,59.20
2022-09-04T02:24:10.396Z,59.21
2022-09-04T02:29:16.822Z,59.33
2022-09-04T02:34:25.729Z,59.80
2022-09-04T02:39:40.254Z,59.88
2022-09-04T02:44:49.097Z,60.28
2022-09-04T02:50:00.748Z,60.35
2022-09-04T02:55:12.362Z,60.53
2022-09-04T03:00:20.032Z,60.66
2022-09-04T03:05:26.720Z,60.77
2022-09-04T03:10:33.223Z,61.05
2022-09-04T03:15:40.820Z,61.39
2022-09-04T03:20:46.063Z,61.53
2022-09-04T03:26:11.057Z,61.81
2022-09-04T03:31:28.063Z,61.88
2022-09-04T03:36:40.178Z,62.19
2022-09-04T03:41:47.081Z,62.11
2022-09-04T03:47:01.807Z,62.28
2022-09-04T03:52:09.224Z,62.51
2022-09-04T03:57:30.011Z,62.69
2022-09-04T04:02:57.741Z,62.86
2022-09-04T04:08:16.978Z,62.89
2022-09-04T04:13:31.355Z,63.08
2022-09-04T04:19:10.700Z,63.32
2022-09-04T04:24:38.930Z,63.38
2022-09-04T04:29:55.856Z,63.61
2022-09-04T04:35:08.787Z,63.68
2022-09-04T04:40:17.502Z,63.88
2022-09-04T04:45:43.588Z,64.16
2022-09-04T04:50:55.811Z,64.35
2022-09-04T04:56:01.645Z,64.67
2022-09-04T05:01:09.484Z,64.51
2022-09-04T05:06:18.168Z,64.40
2022-09-04T05:11:26.393Z,64.49
2022-09-04T05:16:36.152Z,64.57
2022-09-04T05:21:44.432Z,64.72
2022-09-04T05:26:50.778Z,64.68
2022-09-04T05:31:56.550Z,64.59
2022-09-04T05:37:09.480Z,64.47
2022-09-04T05:42:40.070Z,64.09
2022-09-04T05:47:56.770Z,63.80
2022-09-04T05:53:29.757Z,63.40
2022-09-04T05:58:48.320Z,63.33
2022-09-04T06:04:01.681Z,63.44
2022-09-04T06:09:23.595Z,63.51
2022-09-04T06:14:54.360Z,63.49
2022-09-04T06:20:20.988Z,63.63
2022-09-04T06:25:51.904Z,63.33
2022-09-04T06:31:01.172Z,63.14
2022-09-04T06:36:22.006Z,63.05
2022-09-04T06:41:40.338Z,63.20
2022-09-04T06:46:54.744Z,62.92
2022-09-04T06:52:11.093Z,62.89
2022-09-04T06:57:43.393Z,62.76
2022-09-04T07:03:13.630Z,62.63
2022-09-04T07:08:24.699Z,62.33
2022-09-04T07:13:40.413Z,62.39
2022-09-04T07:18:59.396Z,62.01
2022-09-04T07:24:05.401Z,62.06
2022-09-04T07:29:25.607Z,62.04
2022-09-04T07:34:34.851Z,61.28
2022-09-04T07:39:43.925Z,61.44
2022-09-04T07:44:54.455Z,61.20
2022-09-04T07:50:01.954Z,61.52
2022-09-04T07:55:13.184Z,61.44
2022-09-04T08:00:18.465Z,61.54
2022-09-04T08:05:25.906Z,61.07
2022-09-04T08:10:32.555Z,60.97
2022-09-04T08:15:43.898Z,61.20
2022-09-04T08:20:49.679Z,61.04
2022-09-04T08:25:57.297Z,61.09
2022-09-04T08:31:09.130Z,60.50
2022-09-04T08:36:19.108Z,59.91
2022-09-04T08:41:47.123Z,60.12
2022-09-04T08:47:12.105Z,60.11
2022-09-04T08:53:01.843Z,60.08
2022-09-04T08:58:27.298Z,59.74
2022-09-04T09:03:59.566Z,59.44
2022-09-04T09:09:21.348Z,58.80
2022-09-04T09:14:41.872Z,58.75
2022-09-04T09:19:47.576Z,58.49
2022-09-04T09:25:13.778Z,57.44
2022-09-04T09:30:18.293Z,56.84
2022-09-04T09:35:54.669Z,56.38
2022-09-04T09:41:11.466Z,56.53
2022-09-04T09:46:38.492Z,56.55
2022-09-04T09:52:04.033Z,56.61
2022-09-04T09:57:51.187Z,56.72
2022-09-04T10:03:31.383Z,56.89
2022-09-04T10:09:09.692Z,57.20
2022-09-04T10:14:44.034Z,56.99
2022-09-04T10:20:11.810Z,56.78
2022-09-04T10:25:37.821Z,56.56
2022-09-04T10:31:00.817Z,55.93
2022-09-04T10:36:14.446Z,55.70
2022-09-04T10:41:35.893Z,55.40
2022-09-04T10:46:48.088Z,55.41
2022-09-04T10:52:32.899Z,55.35
2022-09-04T10:57:48.153Z,54.57
2022-09-04T11:03:13.034Z,53.50
2022-09-04T11:08:37.104Z,53.50
2022-09-04T11:14:29.014Z,53.32
2022-09-04T11:19:58.058Z,52.07
2022-09-04T11:25:29.857Z,50.75
2022-09-04T11:30:48.427Z,43.44
2022-09-04T11:36:27.106Z,41.00
2022-09-04T11:41:57.553Z,40.49
2022-09-04T11:47:23.337Z,41.89
2022-09-04T11:52:39.661Z,42.27
2022-09-04T11:57:54.594Z,42.71
2022-09-04T12:03:26.341Z,42.12
2022-09-04T12:09:06.038Z,40.64
2022-09-04T12:14:20.730Z,41.09
2022-09-04T12:19:45.154Z,40.25
2022-09-04T12:25:17.952Z,40.88
2022-09-04T12:30:23.613Z,40.59
2022-09-04T12:35:57.907Z,39.53
2022-09-04T12:41:08.647Z,37.47
2022-09-04T12:46:21.635Z,38.81
2022-09-04T12:51:25.219Z,39.52
2022-09-04T12:56:40.881Z,39.63
2022-09-04T13:01:53.395Z,40.24
2022-09-04T13:07:16.261Z,40.49
2022-09-04T13:12:25.357Z,40.29
2022-09-04T13:17:33.635Z,39.75
2022-09-04T13:22:52.757Z,39.52
2022-09-04T13:28:07.166Z,39.51
2022-09-04T13:33:16.545Z,39.36
2022-09-04T13:38:41.227Z,39.19
2022-09-04T13:44:08.089Z,39.30
2022-09-04T13:49:14.979Z,38.63
2022-09-04T13:54:20.024Z,38.88
2022-09-04T13:59:24.635Z,38.86
2022-09-04T14:04:30.261Z,38.73
2022-09-04T14:09:35.096Z,38.48
2022-09-04T14:15:01.018Z,38.16
2022-09-04T14:20:10.398Z,38.98
2022-09-04T14:25:18.901Z,38.34
2022-09-04T14:30:24.376Z,38.04
2022-09-04T14:35:35.764Z,37.86
2022-09-04T14:40:39.876Z,37.74
2022-09-04T14:46:00.653Z,37.48
2022-09-04T14:51:15.044Z,38.22
2022-09-04T14:56:26.872Z,38.10
2022-09-04T15:01:33.377Z,38.27
2022-09-04T15:07:00.969Z,37.59
2022-09-04T15:12:25.797Z,36.51
2022-09-04T15:17:31.396Z,35.14
2022-09-04T15:22:38.647Z,35.75
2022-09-04T15:27:47.135Z,35.96
2022-09-04T15:32:52.314Z,36.54
2022-09-04T15:38:06.652Z,37.83
2022-09-04T15:43:12.928Z,40.22
2022-09-04T15:48:29.102Z,41.31
2022-09-04T15:53:34.153Z,41.62
2022-09-04T15:58:47.535Z,42.51
2022-09-04T16:04:01.149Z,42.68
2022-09-04T16:09:06.856Z,42.80
2022-09-04T16:14:17.287Z,43.19
2022-09-04T16:19:28.402Z,43.39
2022-09-04T16:24:35.980Z,43.24
2022-09-04T16:29:41.410Z,43.25
2022-09-04T16:34:48.353Z,43.71
2022-09-04T16:40:00.954Z,43.92
2022-09-04T16:45:07.459Z,44.09
2022-09-04T16:50:16.879Z,44.65
2022-09-04T16:55:27.069Z,44.31
2022-09-04T17:00:31.101Z,44.93
2022-09-04T17:05:40.063Z,44.46
2022-09-04T17:10:46.622Z,44.94
2022-09-04T17:15:54.452Z,45.13
2022-09-04T17:24:14.261Z,45.29
2022-09-04T17:29:15.828Z,45.55
2022-09-04T17:31:56.052Z,45.61
2022-09-04T17:40:44.479Z,45.89
2022-09-04T17:42:40.207Z,46.32
2022-09-04T17:47:44.851Z,46.73
2022-09-04T17:52:59.089Z,46.96
2022-09-04T17:58:07.415Z,47.27
2022-09-04T18:03:17.382Z,47.59
2022-09-04T18:08:25.648Z,47.86
2022-09-04T18:13:37.415Z,48.03
2022-09-04T18:18:46.242Z,48.05
2022-09-04T18:23:55.548Z,48.22
2022-09-04T18:29:33.862Z,48.48
2022-09-04T18:37:21.675Z,48.50
2022-09-04T18:40:03.972Z,48.93
2022-09-04T18:50:50.874Z,49.10
2022-09-04T18:56:06.781Z,49.41
2022-09-04T19:01:27.693Z,49.85
2022-09-04T19:06:33.902Z,49.67
2022-09-04T19:11:44.613Z,49.70
2022-09-04T19:16:51.386Z,49.90
2022-09-04T19:21:58.707Z,50.09
2022-09-04T19:27:27.092Z,50.10
2022-09-04T19:32:35.037Z,50.39
2022-09-04T19:42:32.167Z,50.51
2022-09-04T19:46:17.044Z,50.67
2022-09-04T19:48:55.121Z,50.54
2022-09-04T19:54:10.201Z,51.10
2022-09-04T19:59:20.425Z,51.08
2022-09-04T20:04:27.631Z,51.18
2022-09-04T20:09:34.821Z,51.09
2022-09-04T20:14:41.948Z,51.22
2022-09-04T20:19:47.205Z,51.51
2022-09-04T20:24:57.094Z,51.53
2022-09-04T20:30:12.074Z,51.75
2022-09-04T20:35:32.679Z,51.72
2022-09-04T20:40:38.889Z,52.15
2022-09-04T20:52:42.702Z,52.34
2022-09-04T20:52:54.414Z,52.23
2022-09-04T20:59:21.032Z,52.23
2022-09-04T21:03:18.288Z,52.46
2022-09-04T21:07:46.350Z,52.70
2022-09-04T21:12:52.549Z,52.79
2022-09-04T21:18:29.400Z,52.71
2022-09-04T21:24:03.243Z,52.92
2022-09-04T21:29:19.752Z,53.14
2022-09-04T21:34:43.994Z,53.01
2022-09-04T21:40:04.398Z,53.25
2022-09-04T21:45:28.206Z,53.36
2022-09-04T21:50:59.024Z,53.56
2022-09-04T22:02:25.467Z,53.62
2022-09-04T22:02:41.330Z,54.17
2022-09-04T22:11:12.226Z,54.31
2022-09-04T22:13:38.856Z,54.45
2022-09-04T22:18:42.222Z,54.75
2022-09-04T22:24:15.602Z,55.01
2022-09-04T22:29:39.910Z,54.95
2022-09-04T22:35:17.298Z,55.13
2022-09-04T22:40:29.279Z,55.71
2022-09-04T22:45:59.568Z,55.63
2022-09-04T22:51:12.571Z,56.00
2022-09-04T22:56:25.135Z,56.00
2022-09-04T23:02:13.393Z,56.18
2022-09-04T23:13:09.457Z,56.42
2022-09-04T23:13:50.523Z,56.32
2022-09-04T23:20:41.130Z,56.74
2022-09-04T23:26:43.771Z,57.02
2022-09-04T23:30:13.484Z,57.44
2022-09-04T23:35:17.643Z,57.71
2022-09-04T23:40:27.993Z,58.03
2022-09-04T23:46:01.774Z,58.16
2022-09-04T23:51:13.711Z,58.41
2022-09-04T23:56:23.731Z,58.35
